PAL431 RJAA-RPLL
Flight info
| Callsign | PAL431 |
|---|---|
| Flight time | 4h 16m |
| Altitude | 36000 |
| Route | SAMUS Y84 BUBDO A590 TUNTO/N0494F380 A590 MUPOB DCT KANDU DCT POLIO POLIO7R |
| Aircraft | A35K/H-SDE2E3GHIJ3J4J5LM1ORWXY/LB1D1 |
Departure
| Time | 2026-05-04 12:25 |
|---|---|
| Airport | Narita International Airport (RJAA) |
Arrival
| Time | 2026-05-04 16:42 |
|---|---|
| Airport | Ninoy Aquino International Airport (RPLL) |
| Time | Latitude | Longitude | Altitude | Speed | Heading |
|---|---|---|---|---|---|
| 2026-05-04 11:29 | 35.77412 | 140.39440 | 94 ft | 0 kts | 238° |
| 2026-05-04 12:09 | 35.77416 | 140.39448 | 122 ft | 2 kts | 240° |
| 2026-05-04 12:09 | 35.77425 | 140.39468 | 150 ft | 3 kts | 247° |
| 2026-05-04 12:10 | 35.77432 | 140.39490 | 150 ft | 3 kts | 258° |
| 2026-05-04 12:10 | 35.77435 | 140.39513 | 150 ft | 3 kts | 274° |
| 2026-05-04 12:10 | 35.77432 | 140.39533 | 150 ft | 3 kts | 295° |
| 2026-05-04 12:10 | 35.77425 | 140.39549 | 150 ft | 3 kts | 322° |
| 2026-05-04 12:11 | 35.77420 | 140.39554 | 150 ft | 1 kts | 329° |
| 2026-05-04 12:14 | 35.77421 | 140.39554 | 150 ft | 1 kts | 329° |
| 2026-05-04 12:15 | 35.77443 | 140.39540 | 150 ft | 7 kts | 339° |
| 2026-05-04 12:15 | 35.77484 | 140.39565 | 150 ft | 8 kts | 64° |
| 2026-05-04 12:15 | 35.77458 | 140.39632 | 150 ft | 11 kts | 137° |
| 2026-05-04 12:15 | 35.77384 | 140.39688 | 150 ft | 13 kts | 149° |
| 2026-05-04 12:16 | 35.77302 | 140.39748 | 150 ft | 14 kts | 149° |
| 2026-05-04 12:16 | 35.77215 | 140.39812 | 150 ft | 15 kts | 149° |
| 2026-05-04 12:16 | 35.77118 | 140.39872 | 150 ft | 16 kts | 168° |
| 2026-05-04 12:16 | 35.77008 | 140.39840 | 150 ft | 17 kts | 204° |
| 2026-05-04 12:17 | 35.76897 | 140.39786 | 150 ft | 18 kts | 193° |
| 2026-05-04 12:17 | 35.76775 | 140.39752 | 150 ft | 18 kts | 208° |
| 2026-05-04 12:17 | 35.76669 | 140.39655 | 150 ft | 19 kts | 211° |
| 2026-05-04 12:17 | 35.76544 | 140.39583 | 150 ft | 20 kts | 204° |
| 2026-05-04 12:18 | 35.76412 | 140.39510 | 150 ft | 21 kts | 204° |
| 2026-05-04 12:18 | 35.76275 | 140.39434 | 150 ft | 22 kts | 204° |
| 2026-05-04 12:18 | 35.76132 | 140.39356 | 150 ft | 23 kts | 204° |
| 2026-05-04 12:18 | 35.75984 | 140.39275 | 150 ft | 24 kts | 204° |
| 2026-05-04 12:19 | 35.75850 | 140.39192 | 149 ft | 19 kts | 219° |
| 2026-05-04 12:19 | 35.75770 | 140.39055 | 150 ft | 20 kts | 239° |
| 2026-05-04 12:19 | 35.75699 | 140.38906 | 150 ft | 21 kts | 237° |
| 2026-05-04 12:19 | 35.75583 | 140.38811 | 150 ft | 21 kts | 204° |
| 2026-05-04 12:20 | 35.75451 | 140.38738 | 150 ft | 15 kts | 204° |
| 2026-05-04 12:20 | 35.75376 | 140.38697 | 150 ft | 0 kts | 204° |
| 2026-05-04 12:20 | 35.75376 | 140.38696 | 150 ft | 0 kts | 204° |
| 2026-05-04 12:20 | 35.75369 | 140.38693 | 150 ft | 2 kts | 204° |
| 2026-05-04 12:21 | 35.75352 | 140.38683 | 150 ft | 4 kts | 204° |
| 2026-05-04 12:21 | 35.75324 | 140.38668 | 150 ft | 5 kts | 204° |
| 2026-05-04 12:21 | 35.75286 | 140.38660 | 150 ft | 6 kts | 178° |
| 2026-05-04 12:21 | 35.75241 | 140.38676 | 150 ft | 7 kts | 156° |
| 2026-05-04 12:22 | 35.75191 | 140.38710 | 150 ft | 9 kts | 150° |
| 2026-05-04 12:22 | 35.75132 | 140.38752 | 150 ft | 10 kts | 150° |
| 2026-05-04 12:22 | 35.75066 | 140.38799 | 151 ft | 12 kts | 150° |
| 2026-05-04 12:22 | 35.74993 | 140.38851 | 151 ft | 13 kts | 150° |
| 2026-05-04 12:23 | 35.74913 | 140.38908 | 151 ft | 14 kts | 149° |
| 2026-05-04 12:23 | 35.74826 | 140.38971 | 151 ft | 15 kts | 149° |
| 2026-05-04 12:23 | 35.74732 | 140.39039 | 151 ft | 16 kts | 149° |
| 2026-05-04 12:23 | 35.74631 | 140.39112 | 150 ft | 17 kts | 149° |
| 2026-05-04 12:24 | 35.74529 | 140.39185 | 150 ft | 17 kts | 149° |
| 2026-05-04 12:24 | 35.74423 | 140.39199 | 149 ft | 17 kts | 217° |
| 2026-05-04 12:24 | 35.74372 | 140.39073 | 148 ft | 16 kts | 281° |
| 2026-05-04 12:24 | 35.74461 | 140.38980 | 148 ft | 25 kts | 329° |
| 2026-05-04 12:25 | 35.74740 | 140.38781 | 151 ft | 74 kts | 329° |
| 2026-05-04 12:25 | 35.75355 | 140.38336 | 150 ft | 129 kts | 330° |
| 2026-05-04 12:25 | 35.76267 | 140.37670 | 181 ft | 173 kts | 330° |
| 2026-05-04 12:25 | 35.77247 | 140.36942 | 880 ft | 160 kts | 330° |
| 2026-05-04 12:26 | 35.78215 | 140.36253 | 1433 ft | 165 kts | 330° |
| 2026-05-04 12:26 | 35.79268 | 140.35492 | 1768 ft | 188 kts | 329° |
| 2026-05-04 12:26 | 35.80463 | 140.34626 | 2049 ft | 209 kts | 329° |
| 2026-05-04 12:26 | 35.81767 | 140.33682 | 2423 ft | 227 kts | 329° |
| 2026-05-04 12:27 | 35.83163 | 140.32672 | 2982 ft | 237 kts | 329° |
| 2026-05-04 12:27 | 35.84594 | 140.31637 | 3689 ft | 239 kts | 328° |
| 2026-05-04 12:27 | 35.86034 | 140.30597 | 4419 ft | 241 kts | 328° |
| 2026-05-04 12:27 | 35.87497 | 140.29562 | 5102 ft | 244 kts | 331° |
| 2026-05-04 12:28 | 35.89166 | 140.29063 | 5755 ft | 255 kts | 357° |
| 2026-05-04 12:28 | 35.90908 | 140.29628 | 6415 ft | 268 kts | 24° |
| 2026-05-04 12:28 | 35.92349 | 140.31164 | 6885 ft | 285 kts | 49° |
| 2026-05-04 12:28 | 35.93201 | 140.33414 | 7034 ft | 296 kts | 75° |
| 2026-05-04 12:29 | 35.93269 | 140.35929 | 7060 ft | 299 kts | 97° |
| 2026-05-04 12:29 | 35.92885 | 140.38497 | 7073 ft | 301 kts | 102° |
| 2026-05-04 12:29 | 35.92377 | 140.40974 | 7348 ft | 305 kts | 111° |
| 2026-05-04 12:29 | 35.91219 | 140.43185 | 8038 ft | 302 kts | 139° |
| 2026-05-04 12:30 | 35.89609 | 140.44727 | 8926 ft | 295 kts | 151° |
| 2026-05-04 12:30 | 35.87898 | 140.46108 | 9788 ft | 293 kts | 152° |
| 2026-05-04 12:30 | 35.86174 | 140.47502 | 10403 ft | 302 kts | 153° |
| 2026-05-04 12:30 | 35.84367 | 140.48987 | 10700 ft | 321 kts | 152° |
| 2026-05-04 12:31 | 35.82463 | 140.50561 | 10963 ft | 340 kts | 152° |
| 2026-05-04 12:31 | 35.80452 | 140.52226 | 11254 ft | 357 kts | 153° |
| 2026-05-04 12:31 | 35.78325 | 140.53949 | 11530 ft | 371 kts | 156° |
| 2026-05-04 12:31 | 35.75930 | 140.55095 | 11813 ft | 370 kts | 175° |
| 2026-05-04 12:32 | 35.73378 | 140.55505 | 12361 ft | 370 kts | 182° |
| 2026-05-04 12:32 | 35.68231 | 140.56147 | 13641 ft | 375 kts | 182° |
| 2026-05-04 12:32 | 35.65636 | 140.56528 | 14176 ft | 377 kts | 182° |
| 2026-05-04 12:33 | 35.63028 | 140.56927 | 14700 ft | 378 kts | 182° |
| 2026-05-04 12:33 | 35.60406 | 140.57338 | 15226 ft | 380 kts | 182° |
| 2026-05-04 12:33 | 35.57783 | 140.57759 | 15720 ft | 382 kts | 182° |
| 2026-05-04 12:33 | 35.55139 | 140.58188 | 16219 ft | 384 kts | 182° |
| 2026-05-04 12:34 | 35.52485 | 140.58622 | 16702 ft | 386 kts | 182° |
| 2026-05-04 12:34 | 35.49811 | 140.59063 | 17197 ft | 388 kts | 182° |
| 2026-05-04 12:34 | 35.47128 | 140.59503 | 17673 ft | 389 kts | 183° |
| 2026-05-04 12:34 | 35.44478 | 140.59654 | 18118 ft | 381 kts | 192° |
| 2026-05-04 12:35 | 35.41883 | 140.59248 | 18547 ft | 373 kts | 199° |
| 2026-05-04 12:35 | 35.39355 | 140.58558 | 18993 ft | 370 kts | 202° |
| 2026-05-04 12:35 | 35.36875 | 140.57732 | 19440 ft | 369 kts | 205° |
| 2026-05-04 12:35 | 35.34415 | 140.56836 | 19896 ft | 369 kts | 205° |
| 2026-05-04 12:36 | 35.31959 | 140.55915 | 20337 ft | 370 kts | 206° |
| 2026-05-04 12:36 | 35.29522 | 140.55000 | 20780 ft | 371 kts | 206° |
| 2026-05-04 12:36 | 35.27013 | 140.54072 | 21257 ft | 372 kts | 205° |
| 2026-05-04 12:36 | 35.24565 | 140.53177 | 21663 ft | 374 kts | 205° |
| 2026-05-04 12:37 | 35.22063 | 140.52274 | 22097 ft | 375 kts | 205° |
| 2026-05-04 12:37 | 35.19556 | 140.51375 | 22529 ft | 376 kts | 205° |
| 2026-05-04 12:37 | 35.17036 | 140.50474 | 22933 ft | 378 kts | 205° |
| 2026-05-04 12:37 | 35.14505 | 140.49571 | 23340 ft | 379 kts | 205° |
| 2026-05-04 12:38 | 35.11965 | 140.48665 | 23670 ft | 381 kts | 205° |
| 2026-05-04 12:38 | 35.09411 | 140.47754 | 23984 ft | 383 kts | 205° |
| 2026-05-04 12:38 | 35.06845 | 140.46839 | 24313 ft | 385 kts | 205° |
| 2026-05-04 12:38 | 35.04263 | 140.45918 | 24655 ft | 387 kts | 205° |
| 2026-05-04 12:39 | 35.01669 | 140.44995 | 25019 ft | 389 kts | 205° |
| 2026-05-04 12:39 | 34.99069 | 140.44070 | 25396 ft | 391 kts | 205° |
| 2026-05-04 12:39 | 34.96448 | 140.43137 | 25781 ft | 393 kts | 205° |
| 2026-05-04 12:39 | 34.93818 | 140.42202 | 26183 ft | 395 kts | 205° |
| 2026-05-04 12:40 | 34.91178 | 140.41264 | 26583 ft | 397 kts | 205° |
| 2026-05-04 12:40 | 34.88509 | 140.40317 | 26979 ft | 399 kts | 204° |
| 2026-05-04 12:40 | 34.85835 | 140.39368 | 27373 ft | 402 kts | 204° |
| 2026-05-04 12:40 | 34.83143 | 140.38414 | 27760 ft | 404 kts | 204° |
| 2026-05-04 12:41 | 34.80434 | 140.37454 | 28126 ft | 406 kts | 204° |
| 2026-05-04 12:41 | 34.77710 | 140.36489 | 28487 ft | 409 kts | 204° |
| 2026-05-04 12:41 | 34.75899 | 140.35849 | 28724 ft | 410 kts | 204° |
| 2026-05-04 12:41 | 34.73150 | 140.34876 | 29058 ft | 413 kts | 204° |
| 2026-05-04 12:42 | 34.70379 | 140.33897 | 29385 ft | 415 kts | 204° |
| 2026-05-04 12:42 | 34.67597 | 140.32915 | 29719 ft | 417 kts | 204° |
| 2026-05-04 12:42 | 34.63871 | 140.31605 | 30300 ft | 415 kts | 204° |
| 2026-05-04 12:42 | 34.62041 | 140.30962 | 30567 ft | 414 kts | 204° |
| 2026-05-04 12:43 | 34.59271 | 140.29989 | 30960 ft | 413 kts | 204° |
| 2026-05-04 12:43 | 34.56517 | 140.29021 | 31359 ft | 412 kts | 204° |
| 2026-05-04 12:43 | 34.53775 | 140.28058 | 31748 ft | 411 kts | 204° |
| 2026-05-04 12:43 | 34.51033 | 140.27094 | 32133 ft | 409 kts | 204° |
| 2026-05-04 12:44 | 34.48294 | 140.26131 | 32515 ft | 408 kts | 204° |
| 2026-05-04 12:44 | 34.45567 | 140.25173 | 32888 ft | 407 kts | 204° |
| 2026-05-04 12:44 | 34.42849 | 140.24219 | 33260 ft | 406 kts | 204° |
| 2026-05-04 12:44 | 34.40134 | 140.23267 | 33625 ft | 405 kts | 204° |
| 2026-05-04 12:45 | 34.37431 | 140.22320 | 33955 ft | 404 kts | 204° |
| 2026-05-04 12:45 | 34.34728 | 140.21372 | 34219 ft | 404 kts | 204° |
| 2026-05-04 12:45 | 34.32028 | 140.20426 | 34466 ft | 404 kts | 204° |
| 2026-05-04 12:45 | 34.29323 | 140.19479 | 34706 ft | 405 kts | 204° |
| 2026-05-04 12:46 | 34.26617 | 140.18532 | 34942 ft | 405 kts | 204° |
| 2026-05-04 12:46 | 34.23910 | 140.17586 | 35178 ft | 405 kts | 204° |
| 2026-05-04 12:46 | 34.21197 | 140.16639 | 35411 ft | 405 kts | 204° |
| 2026-05-04 12:46 | 34.18569 | 140.15723 | 35643 ft | 405 kts | 204° |
| 2026-05-04 12:47 | 34.15782 | 140.14751 | 35842 ft | 406 kts | 204° |
| 2026-05-04 12:47 | 34.10349 | 140.12852 | 35890 ft | 413 kts | 204° |
| 2026-05-04 12:48 | 34.04829 | 140.10934 | 35895 ft | 413 kts | 204° |
| 2026-05-04 12:48 | 33.99306 | 140.09019 | 35902 ft | 413 kts | 204° |
| 2026-05-04 12:49 | 33.93769 | 140.07100 | 35906 ft | 414 kts | 204° |
| 2026-05-04 12:49 | 33.88222 | 140.05178 | 35911 ft | 415 kts | 204° |
| 2026-05-04 12:50 | 33.82664 | 140.03256 | 35916 ft | 416 kts | 204° |
| 2026-05-04 12:50 | 33.77099 | 140.01333 | 35919 ft | 417 kts | 204° |
| 2026-05-04 12:51 | 33.71514 | 139.99407 | 35923 ft | 418 kts | 204° |
| 2026-05-04 12:51 | 33.65923 | 139.97482 | 35926 ft | 418 kts | 204° |
| 2026-05-04 12:52 | 33.60324 | 139.95556 | 35930 ft | 419 kts | 204° |
| 2026-05-04 12:52 | 33.54713 | 139.93628 | 35938 ft | 419 kts | 204° |
| 2026-05-04 12:53 | 33.49099 | 139.91702 | 35937 ft | 420 kts | 204° |
| 2026-05-04 12:53 | 33.43706 | 139.89854 | 35943 ft | 420 kts | 204° |
| 2026-05-04 12:54 | 33.38112 | 139.87940 | 35942 ft | 421 kts | 204° |
| 2026-05-04 12:54 | 33.32477 | 139.86015 | 35944 ft | 421 kts | 204° |
| 2026-05-04 12:55 | 33.26831 | 139.84088 | 35945 ft | 422 kts | 204° |
| 2026-05-04 12:55 | 33.21444 | 139.82253 | 35948 ft | 423 kts | 204° |
| 2026-05-04 12:56 | 33.15932 | 139.79968 | 35947 ft | 414 kts | 212° |
| 2026-05-04 12:56 | 33.11171 | 139.76284 | 35960 ft | 404 kts | 225° |
| 2026-05-04 12:57 | 33.07479 | 139.71319 | 35957 ft | 400 kts | 236° |
| 2026-05-04 12:57 | 33.04482 | 139.65734 | 35965 ft | 400 kts | 240° |
| 2026-05-04 12:58 | 33.01649 | 139.60031 | 35966 ft | 400 kts | 240° |
| 2026-05-04 12:58 | 32.98783 | 139.54358 | 35963 ft | 400 kts | 239° |
| 2026-05-04 12:59 | 32.95874 | 139.48717 | 35963 ft | 400 kts | 239° |
| 2026-05-04 12:59 | 32.92952 | 139.43094 | 35964 ft | 400 kts | 239° |
| 2026-05-04 13:00 | 32.90024 | 139.37469 | 35964 ft | 399 kts | 239° |
| 2026-05-04 13:00 | 32.87114 | 139.31883 | 35968 ft | 399 kts | 239° |
| 2026-05-04 13:01 | 32.84187 | 139.26271 | 35972 ft | 399 kts | 239° |
| 2026-05-04 13:01 | 32.81259 | 139.20665 | 35972 ft | 399 kts | 239° |
| 2026-05-04 13:02 | 32.78327 | 139.15060 | 35971 ft | 399 kts | 239° |
| 2026-05-04 13:02 | 32.75390 | 139.09453 | 35977 ft | 399 kts | 239° |
| 2026-05-04 13:03 | 32.72452 | 139.03853 | 35974 ft | 399 kts | 239° |
| 2026-05-04 13:03 | 32.69512 | 138.98258 | 35980 ft | 399 kts | 239° |
| 2026-05-04 13:04 | 32.66572 | 138.92672 | 35976 ft | 399 kts | 239° |
| 2026-05-04 13:04 | 32.63647 | 138.87122 | 35980 ft | 399 kts | 239° |
| 2026-05-04 13:05 | 32.60705 | 138.81548 | 35981 ft | 398 kts | 239° |
| 2026-05-04 13:05 | 32.57763 | 138.75982 | 35982 ft | 398 kts | 239° |
| 2026-05-04 13:06 | 32.54814 | 138.70413 | 35984 ft | 398 kts | 239° |
| 2026-05-04 13:06 | 32.51865 | 138.64850 | 35991 ft | 398 kts | 239° |
| 2026-05-04 13:07 | 32.48919 | 138.59302 | 35974 ft | 398 kts | 239° |
| 2026-05-04 13:07 | 32.45967 | 138.53751 | 35994 ft | 398 kts | 239° |
| 2026-05-04 13:08 | 32.43012 | 138.48202 | 35991 ft | 398 kts | 239° |
| 2026-05-04 13:08 | 32.40059 | 138.42665 | 35985 ft | 398 kts | 239° |
| 2026-05-04 13:09 | 32.37118 | 138.37159 | 35993 ft | 398 kts | 239° |
| 2026-05-04 13:09 | 32.34157 | 138.31623 | 35993 ft | 398 kts | 239° |
| 2026-05-04 13:10 | 32.31196 | 138.26095 | 35989 ft | 398 kts | 239° |
| 2026-05-04 13:10 | 32.28230 | 138.20567 | 35991 ft | 398 kts | 239° |
| 2026-05-04 13:11 | 32.25266 | 138.15051 | 35994 ft | 397 kts | 239° |
| 2026-05-04 13:11 | 32.22302 | 138.09542 | 35999 ft | 397 kts | 239° |
| 2026-05-04 13:12 | 32.19333 | 138.04032 | 36005 ft | 397 kts | 239° |
| 2026-05-04 13:12 | 32.16369 | 137.98539 | 36004 ft | 397 kts | 239° |
| 2026-05-04 13:13 | 32.13416 | 137.93074 | 36003 ft | 397 kts | 239° |
| 2026-05-04 13:13 | 32.10445 | 137.87585 | 36009 ft | 397 kts | 239° |
| 2026-05-04 13:14 | 32.07470 | 137.82096 | 36008 ft | 397 kts | 239° |
| 2026-05-04 13:14 | 32.04492 | 137.76609 | 36010 ft | 397 kts | 239° |
| 2026-05-04 13:15 | 32.01514 | 137.71129 | 36010 ft | 397 kts | 239° |
| 2026-05-04 13:15 | 31.98530 | 137.65647 | 36013 ft | 397 kts | 239° |
| 2026-05-04 13:16 | 31.95538 | 137.60159 | 36016 ft | 397 kts | 239° |
| 2026-05-04 13:16 | 31.92547 | 137.54681 | 36019 ft | 398 kts | 239° |
| 2026-05-04 13:17 | 31.89557 | 137.49211 | 36023 ft | 397 kts | 239° |
| 2026-05-04 13:17 | 31.86597 | 137.43804 | 36023 ft | 397 kts | 239° |
| 2026-05-04 13:18 | 31.83619 | 137.38372 | 36024 ft | 398 kts | 239° |
| 2026-05-04 13:18 | 31.80620 | 137.32908 | 36024 ft | 398 kts | 239° |
| 2026-05-04 13:19 | 31.77616 | 137.27445 | 36029 ft | 397 kts | 239° |
| 2026-05-04 13:19 | 31.74612 | 137.21990 | 36030 ft | 397 kts | 239° |
| 2026-05-04 13:20 | 31.71609 | 137.16543 | 36030 ft | 397 kts | 239° |
| 2026-05-04 13:20 | 31.68602 | 137.11097 | 36033 ft | 397 kts | 239° |
| 2026-05-04 13:21 | 31.65615 | 137.05696 | 36037 ft | 397 kts | 239° |
| 2026-05-04 13:21 | 31.62604 | 137.00258 | 36039 ft | 397 kts | 239° |
| 2026-05-04 13:22 | 31.59592 | 136.94826 | 36040 ft | 397 kts | 239° |
| 2026-05-04 13:22 | 31.56579 | 136.89400 | 36044 ft | 397 kts | 239° |
| 2026-05-04 13:23 | 31.53556 | 136.83962 | 36047 ft | 397 kts | 239° |
| 2026-05-04 13:23 | 31.50538 | 136.78544 | 36047 ft | 397 kts | 239° |
| 2026-05-04 13:24 | 31.47514 | 136.73119 | 36050 ft | 397 kts | 239° |
| 2026-05-04 13:24 | 31.44465 | 136.67722 | 36052 ft | 398 kts | 236° |
| 2026-05-04 13:25 | 31.38658 | 136.60685 | 36055 ft | 404 kts | 226° |
| 2026-05-04 13:25 | 31.34423 | 136.56364 | 36059 ft | 405 kts | 226° |
| 2026-05-04 13:26 | 31.30156 | 136.52057 | 36062 ft | 405 kts | 226° |
| 2026-05-04 13:26 | 31.25903 | 136.47746 | 36063 ft | 405 kts | 226° |
| 2026-05-04 13:27 | 31.21654 | 136.43427 | 36068 ft | 405 kts | 226° |
| 2026-05-04 13:27 | 31.17430 | 136.39135 | 36065 ft | 405 kts | 226° |
| 2026-05-04 13:28 | 31.13174 | 136.34816 | 36068 ft | 405 kts | 226° |
| 2026-05-04 13:28 | 31.08913 | 136.30498 | 36074 ft | 405 kts | 226° |
| 2026-05-04 13:29 | 31.05368 | 136.26910 | 36067 ft | 406 kts | 226° |
| 2026-05-04 13:29 | 31.01100 | 136.22595 | 36073 ft | 406 kts | 226° |
| 2026-05-04 13:30 | 30.96139 | 136.17587 | 36073 ft | 406 kts | 226° |
| 2026-05-04 13:30 | 30.92562 | 136.13980 | 36073 ft | 406 kts | 226° |
| 2026-05-04 13:31 | 30.88291 | 136.09678 | 36072 ft | 406 kts | 226° |
| 2026-05-04 13:31 | 30.84037 | 136.05399 | 36078 ft | 406 kts | 226° |
| 2026-05-04 13:32 | 30.79757 | 136.01098 | 36074 ft | 407 kts | 226° |
| 2026-05-04 13:32 | 30.75469 | 135.96794 | 36066 ft | 407 kts | 226° |
| 2026-05-04 13:33 | 30.71176 | 135.92490 | 36079 ft | 408 kts | 226° |
| 2026-05-04 13:33 | 30.66878 | 135.88188 | 36082 ft | 408 kts | 226° |
| 2026-05-04 13:34 | 30.62565 | 135.83876 | 36082 ft | 408 kts | 226° |
| 2026-05-04 13:34 | 30.58260 | 135.79578 | 36083 ft | 409 kts | 226° |
| 2026-05-04 13:35 | 30.51782 | 135.73117 | 36084 ft | 409 kts | 226° |
| 2026-05-04 13:36 | 30.47490 | 135.68844 | 36089 ft | 409 kts | 226° |
| 2026-05-04 13:36 | 30.43167 | 135.64546 | 36090 ft | 410 kts | 226° |
| 2026-05-04 13:37 | 30.38833 | 135.60241 | 36090 ft | 410 kts | 226° |
| 2026-05-04 13:37 | 30.34499 | 135.55942 | 36094 ft | 411 kts | 226° |
| 2026-05-04 13:38 | 30.30152 | 135.51634 | 36094 ft | 411 kts | 225° |
| 2026-05-04 13:38 | 30.25804 | 135.47331 | 36093 ft | 411 kts | 225° |
| 2026-05-04 13:39 | 30.21453 | 135.43030 | 36094 ft | 412 kts | 225° |
| 2026-05-04 13:39 | 30.17095 | 135.38728 | 36096 ft | 412 kts | 225° |
| 2026-05-04 13:40 | 30.12735 | 135.34429 | 36096 ft | 413 kts | 225° |
| 2026-05-04 13:40 | 30.08384 | 135.30091 | 36096 ft | 413 kts | 226° |
| 2026-05-04 13:41 | 30.04080 | 135.25711 | 36097 ft | 413 kts | 226° |
| 2026-05-04 13:41 | 29.99787 | 135.21353 | 36098 ft | 414 kts | 226° |
| 2026-05-04 13:42 | 29.93283 | 135.14791 | 36102 ft | 414 kts | 226° |
| 2026-05-04 13:42 | 29.88935 | 135.10416 | 36101 ft | 415 kts | 226° |
| 2026-05-04 13:43 | 29.84575 | 135.06036 | 36104 ft | 415 kts | 226° |
| 2026-05-04 13:43 | 29.80218 | 135.01662 | 36109 ft | 415 kts | 226° |
| 2026-05-04 13:44 | 29.75854 | 134.97287 | 36108 ft | 416 kts | 226° |
| 2026-05-04 13:44 | 29.71523 | 134.92949 | 36106 ft | 416 kts | 226° |
| 2026-05-04 13:45 | 29.67149 | 134.88573 | 36109 ft | 417 kts | 226° |
| 2026-05-04 13:45 | 29.62770 | 134.84198 | 36109 ft | 417 kts | 226° |
| 2026-05-04 13:46 | 29.58382 | 134.79819 | 36114 ft | 418 kts | 226° |
| 2026-05-04 13:46 | 29.53991 | 134.75443 | 36115 ft | 418 kts | 226° |
| 2026-05-04 13:47 | 29.49593 | 134.71065 | 36110 ft | 419 kts | 226° |
| 2026-05-04 13:47 | 29.45183 | 134.66680 | 36109 ft | 419 kts | 225° |
| 2026-05-04 13:48 | 29.40775 | 134.62302 | 36109 ft | 420 kts | 225° |
| 2026-05-04 13:48 | 29.36386 | 134.57949 | 36111 ft | 420 kts | 225° |
| 2026-05-04 13:49 | 29.31966 | 134.53570 | 36117 ft | 420 kts | 225° |
| 2026-05-04 13:49 | 29.27534 | 134.49184 | 36112 ft | 420 kts | 225° |
| 2026-05-04 13:50 | 29.23104 | 134.44806 | 36115 ft | 420 kts | 225° |
| 2026-05-04 13:50 | 29.18671 | 134.40428 | 36117 ft | 421 kts | 225° |
| 2026-05-04 13:51 | 29.14238 | 134.36056 | 36115 ft | 421 kts | 225° |
| 2026-05-04 13:51 | 29.09794 | 134.31680 | 36117 ft | 422 kts | 225° |
| 2026-05-04 13:52 | 29.03119 | 134.25116 | 36119 ft | 422 kts | 225° |
| 2026-05-04 13:53 | 28.98689 | 134.20766 | 36124 ft | 423 kts | 225° |
| 2026-05-04 13:53 | 28.94226 | 134.16388 | 36126 ft | 423 kts | 225° |
| 2026-05-04 13:54 | 28.87521 | 134.09821 | 36122 ft | 424 kts | 225° |
| 2026-05-04 13:55 | 28.80800 | 134.03250 | 36118 ft | 424 kts | 225° |
| 2026-05-04 13:55 | 28.74074 | 133.96685 | 36131 ft | 425 kts | 225° |
| 2026-05-04 13:56 | 28.69580 | 133.92306 | 36130 ft | 425 kts | 225° |
| 2026-05-04 13:57 | 28.62830 | 133.85738 | 36127 ft | 426 kts | 225° |
| 2026-05-04 13:58 | 28.53818 | 133.76996 | 36124 ft | 427 kts | 225° |
| 2026-05-04 13:58 | 28.47031 | 133.70415 | 36123 ft | 427 kts | 225° |
| 2026-05-04 13:59 | 28.42506 | 133.66036 | 36128 ft | 427 kts | 225° |
| 2026-05-04 14:00 | 28.35700 | 133.59461 | 36133 ft | 428 kts | 225° |
| 2026-05-04 14:00 | 28.28903 | 133.52907 | 36131 ft | 429 kts | 225° |
| 2026-05-04 14:01 | 28.24351 | 133.48524 | 36132 ft | 430 kts | 225° |
| 2026-05-04 14:02 | 28.17499 | 133.41936 | 36134 ft | 430 kts | 225° |
| 2026-05-04 14:02 | 28.12923 | 133.37543 | 36134 ft | 430 kts | 225° |
| 2026-05-04 14:03 | 28.08352 | 133.33160 | 36134 ft | 431 kts | 225° |
| 2026-05-04 14:03 | 28.03780 | 133.28781 | 36132 ft | 431 kts | 225° |
| 2026-05-04 14:04 | 27.96929 | 133.22227 | 36128 ft | 432 kts | 224° |
| 2026-05-04 14:04 | 27.92339 | 133.17844 | 36126 ft | 432 kts | 224° |
| 2026-05-04 14:05 | 27.85430 | 133.11260 | 36134 ft | 433 kts | 224° |
| 2026-05-04 14:06 | 27.80804 | 133.06883 | 36130 ft | 434 kts | 224° |
| 2026-05-04 14:06 | 27.76171 | 133.02510 | 36128 ft | 434 kts | 224° |
| 2026-05-04 14:07 | 27.71565 | 132.98163 | 36126 ft | 435 kts | 224° |
| 2026-05-04 14:07 | 27.66923 | 132.93784 | 36127 ft | 435 kts | 224° |
| 2026-05-04 14:08 | 27.62276 | 132.89407 | 36122 ft | 436 kts | 224° |
| 2026-05-04 14:08 | 27.57619 | 132.85024 | 36128 ft | 436 kts | 224° |
| 2026-05-04 14:09 | 27.50631 | 132.78458 | 36119 ft | 436 kts | 224° |
| 2026-05-04 14:10 | 27.43624 | 132.71885 | 36126 ft | 437 kts | 224° |
| 2026-05-04 14:10 | 27.38948 | 132.67505 | 36124 ft | 438 kts | 224° |
| 2026-05-04 14:11 | 27.34299 | 132.63155 | 36129 ft | 438 kts | 224° |
| 2026-05-04 14:11 | 27.27258 | 132.56576 | 36123 ft | 439 kts | 224° |
| 2026-05-04 14:12 | 27.22557 | 132.52191 | 36127 ft | 439 kts | 224° |
| 2026-05-04 14:13 | 27.15507 | 132.45622 | 36124 ft | 439 kts | 224° |
| 2026-05-04 14:13 | 27.10801 | 132.41244 | 36126 ft | 439 kts | 224° |
| 2026-05-04 14:14 | 27.06085 | 132.36861 | 36127 ft | 440 kts | 224° |
| 2026-05-04 14:14 | 26.99007 | 132.30292 | 36124 ft | 441 kts | 223° |
| 2026-05-04 14:15 | 26.89547 | 132.21532 | 36123 ft | 441 kts | 223° |
| 2026-05-04 14:16 | 26.83243 | 132.15704 | 36124 ft | 442 kts | 223° |
| 2026-05-04 14:17 | 26.75358 | 132.08426 | 36126 ft | 442 kts | 223° |
| 2026-05-04 14:18 | 26.68223 | 132.01853 | 36125 ft | 443 kts | 223° |
| 2026-05-04 14:19 | 26.59490 | 131.93822 | 36127 ft | 444 kts | 223° |
| 2026-05-04 14:19 | 26.54717 | 131.89441 | 36127 ft | 445 kts | 223° |
| 2026-05-04 14:20 | 26.49936 | 131.85056 | 36127 ft | 445 kts | 223° |
| 2026-05-04 14:20 | 26.45151 | 131.80673 | 36126 ft | 445 kts | 223° |
| 2026-05-04 14:21 | 26.37963 | 131.74097 | 36127 ft | 445 kts | 223° |
| 2026-05-04 14:21 | 26.33167 | 131.69717 | 36125 ft | 446 kts | 223° |
| 2026-05-04 14:22 | 26.28368 | 131.65337 | 36123 ft | 446 kts | 223° |
| 2026-05-04 14:22 | 26.23560 | 131.60955 | 36120 ft | 446 kts | 223° |
| 2026-05-04 14:23 | 26.16375 | 131.54415 | 36118 ft | 447 kts | 223° |
| 2026-05-04 14:24 | 26.11558 | 131.50036 | 36114 ft | 447 kts | 223° |
| 2026-05-04 14:24 | 26.06736 | 131.45658 | 36109 ft | 448 kts | 223° |
| 2026-05-04 14:25 | 26.01904 | 131.41275 | 36102 ft | 448 kts | 223° |
| 2026-05-04 14:25 | 25.94653 | 131.34707 | 36102 ft | 449 kts | 223° |
| 2026-05-04 14:26 | 25.89804 | 131.30321 | 36101 ft | 449 kts | 223° |
| 2026-05-04 14:26 | 25.84944 | 131.25933 | 36101 ft | 450 kts | 223° |
| 2026-05-04 14:27 | 25.79877 | 131.21821 | 36101 ft | 453 kts | 218° |
| 2026-05-04 14:27 | 25.74651 | 131.17925 | 36106 ft | 453 kts | 218° |
| 2026-05-04 14:28 | 25.69435 | 131.13994 | 36106 ft | 453 kts | 218° |
| 2026-05-04 14:28 | 25.64246 | 131.10016 | 36108 ft | 453 kts | 219° |
| 2026-05-04 14:29 | 25.53894 | 131.02036 | 36115 ft | 454 kts | 219° |
| 2026-05-04 14:30 | 25.48701 | 130.98041 | 36113 ft | 455 kts | 219° |
| 2026-05-04 14:31 | 25.40929 | 130.92075 | 36112 ft | 455 kts | 219° |
| 2026-05-04 14:32 | 25.30511 | 130.84092 | 36111 ft | 456 kts | 219° |
| 2026-05-04 14:32 | 25.25295 | 130.80101 | 36112 ft | 456 kts | 219° |
| 2026-05-04 14:33 | 25.20073 | 130.76110 | 36113 ft | 456 kts | 218° |
| 2026-05-04 14:33 | 25.14844 | 130.72118 | 36108 ft | 457 kts | 218° |
| 2026-05-04 14:34 | 25.09649 | 130.68155 | 36110 ft | 457 kts | 218° |
| 2026-05-04 14:34 | 25.04381 | 130.64142 | 36108 ft | 457 kts | 218° |
| 2026-05-04 14:35 | 24.99172 | 130.60178 | 36107 ft | 458 kts | 218° |
| 2026-05-04 14:35 | 24.93921 | 130.56186 | 36103 ft | 458 kts | 218° |
| 2026-05-04 14:36 | 24.88670 | 130.52198 | 36101 ft | 459 kts | 218° |
| 2026-05-04 14:36 | 24.83414 | 130.48211 | 36101 ft | 459 kts | 218° |
| 2026-05-04 14:37 | 24.78146 | 130.44219 | 36101 ft | 459 kts | 218° |
| 2026-05-04 14:37 | 24.72882 | 130.40233 | 36099 ft | 459 kts | 218° |
| 2026-05-04 14:38 | 24.67650 | 130.36276 | 36099 ft | 460 kts | 218° |
| 2026-05-04 14:38 | 24.62368 | 130.32286 | 36097 ft | 460 kts | 218° |
| 2026-05-04 14:39 | 24.57085 | 130.28299 | 36095 ft | 461 kts | 218° |
| 2026-05-04 14:39 | 24.51796 | 130.24312 | 36093 ft | 461 kts | 218° |
| 2026-05-04 14:40 | 24.43854 | 130.18333 | 36093 ft | 461 kts | 218° |
| 2026-05-04 14:40 | 24.38562 | 130.14355 | 36095 ft | 461 kts | 218° |
| 2026-05-04 14:41 | 24.33269 | 130.10371 | 36098 ft | 461 kts | 218° |
| 2026-05-04 14:42 | 24.22815 | 130.02195 | 36096 ft | 462 kts | 219° |
| 2026-05-04 14:42 | 24.17576 | 129.98105 | 36089 ft | 462 kts | 219° |
| 2026-05-04 14:43 | 24.12324 | 129.94025 | 36078 ft | 463 kts | 219° |
| 2026-05-04 14:43 | 24.07108 | 129.89982 | 36081 ft | 463 kts | 219° |
| 2026-05-04 14:44 | 24.01851 | 129.85910 | 36089 ft | 463 kts | 219° |
| 2026-05-04 14:44 | 23.96593 | 129.81841 | 36077 ft | 463 kts | 219° |
| 2026-05-04 14:45 | 23.91327 | 129.77770 | 36076 ft | 463 kts | 219° |
| 2026-05-04 14:45 | 23.86058 | 129.73700 | 36084 ft | 464 kts | 219° |
| 2026-05-04 14:46 | 23.80786 | 129.69633 | 36076 ft | 464 kts | 219° |
| 2026-05-04 14:46 | 23.75507 | 129.65563 | 36070 ft | 465 kts | 219° |
| 2026-05-04 14:47 | 23.70225 | 129.61496 | 36074 ft | 465 kts | 219° |
| 2026-05-04 14:47 | 23.64931 | 129.57425 | 36076 ft | 465 kts | 219° |
| 2026-05-04 14:48 | 23.59640 | 129.53359 | 36073 ft | 465 kts | 219° |
| 2026-05-04 14:48 | 23.54375 | 129.49317 | 36072 ft | 465 kts | 218° |
| 2026-05-04 14:49 | 23.49084 | 129.45259 | 36071 ft | 466 kts | 218° |
| 2026-05-04 14:49 | 23.43788 | 129.41202 | 36067 ft | 466 kts | 218° |
| 2026-05-04 14:50 | 23.38480 | 129.37139 | 36069 ft | 466 kts | 218° |
| 2026-05-04 14:50 | 23.33170 | 129.33079 | 36068 ft | 466 kts | 218° |
| 2026-05-04 14:51 | 23.27855 | 129.29019 | 36068 ft | 467 kts | 218° |
| 2026-05-04 14:51 | 23.22534 | 129.24959 | 36064 ft | 467 kts | 218° |
| 2026-05-04 14:52 | 23.17211 | 129.20901 | 36063 ft | 467 kts | 218° |
| 2026-05-04 14:52 | 23.11919 | 129.16871 | 36061 ft | 467 kts | 218° |
| 2026-05-04 14:53 | 23.06591 | 129.12818 | 36058 ft | 467 kts | 218° |
| 2026-05-04 14:53 | 23.01256 | 129.08763 | 36217 ft | 466 kts | 218° |
| 2026-05-04 14:54 | 22.98617 | 129.06741 | 36567 ft | 463 kts | 219° |
| 2026-05-04 14:54 | 22.96054 | 129.04638 | 36896 ft | 461 kts | 221° |
| 2026-05-04 14:54 | 22.93543 | 129.02486 | 37193 ft | 459 kts | 222° |
| 2026-05-04 14:54 | 22.91051 | 129.00322 | 37455 ft | 458 kts | 222° |
| 2026-05-04 14:55 | 22.88559 | 128.98163 | 37705 ft | 458 kts | 221° |
| 2026-05-04 14:55 | 22.86058 | 128.96014 | 37955 ft | 458 kts | 221° |
| 2026-05-04 14:55 | 22.81014 | 128.91728 | 38057 ft | 463 kts | 221° |
| 2026-05-04 14:56 | 22.75957 | 128.87467 | 38055 ft | 463 kts | 221° |
| 2026-05-04 14:56 | 22.70876 | 128.83197 | 38053 ft | 463 kts | 221° |
| 2026-05-04 14:57 | 22.65784 | 128.78917 | 38055 ft | 463 kts | 221° |
| 2026-05-04 14:57 | 22.60697 | 128.74644 | 38054 ft | 463 kts | 221° |
| 2026-05-04 14:58 | 22.55605 | 128.70370 | 38048 ft | 463 kts | 221° |
| 2026-05-04 14:58 | 22.51376 | 128.66823 | 38049 ft | 463 kts | 221° |
| 2026-05-04 14:59 | 22.45423 | 128.61836 | 38050 ft | 463 kts | 221° |
| 2026-05-04 15:00 | 22.37811 | 128.55466 | 38044 ft | 463 kts | 221° |
| 2026-05-04 15:00 | 22.32712 | 128.51205 | 38046 ft | 463 kts | 221° |
| 2026-05-04 15:01 | 22.25050 | 128.44810 | 38046 ft | 464 kts | 221° |
| 2026-05-04 15:01 | 22.19938 | 128.40548 | 38046 ft | 464 kts | 221° |
| 2026-05-04 15:02 | 22.14821 | 128.36285 | 38043 ft | 464 kts | 221° |
| 2026-05-04 15:02 | 22.09708 | 128.32030 | 38040 ft | 465 kts | 220° |
| 2026-05-04 15:03 | 22.04621 | 128.27801 | 38041 ft | 465 kts | 220° |
| 2026-05-04 15:03 | 21.99499 | 128.23546 | 38039 ft | 465 kts | 220° |
| 2026-05-04 15:04 | 21.94373 | 128.19293 | 38041 ft | 465 kts | 220° |
| 2026-05-04 15:04 | 21.89241 | 128.15038 | 38041 ft | 465 kts | 220° |
| 2026-05-04 15:05 | 21.84111 | 128.10789 | 38034 ft | 465 kts | 220° |
| 2026-05-04 15:05 | 21.79841 | 128.07255 | 38032 ft | 466 kts | 220° |
| 2026-05-04 15:06 | 21.74700 | 128.03004 | 38036 ft | 466 kts | 220° |
| 2026-05-04 15:07 | 21.66983 | 127.96630 | 38035 ft | 467 kts | 220° |
| 2026-05-04 15:07 | 21.60990 | 127.91687 | 38034 ft | 467 kts | 220° |
| 2026-05-04 15:08 | 21.56665 | 127.88122 | 38030 ft | 467 kts | 220° |
| 2026-05-04 15:08 | 21.51504 | 127.83872 | 38032 ft | 467 kts | 220° |
| 2026-05-04 15:09 | 21.46374 | 127.79652 | 38032 ft | 468 kts | 220° |
| 2026-05-04 15:09 | 21.41208 | 127.75406 | 38030 ft | 468 kts | 220° |
| 2026-05-04 15:10 | 21.33447 | 127.69035 | 38027 ft | 469 kts | 220° |
| 2026-05-04 15:11 | 21.25667 | 127.62656 | 38020 ft | 470 kts | 220° |
| 2026-05-04 15:11 | 21.20466 | 127.58397 | 38024 ft | 470 kts | 220° |
| 2026-05-04 15:12 | 21.15267 | 127.54143 | 38034 ft | 471 kts | 219° |
| 2026-05-04 15:12 | 21.10057 | 127.49884 | 38034 ft | 471 kts | 219° |
| 2026-05-04 15:13 | 21.04848 | 127.45631 | 38032 ft | 471 kts | 219° |
| 2026-05-04 15:13 | 20.99637 | 127.41379 | 38011 ft | 471 kts | 219° |
| 2026-05-04 15:14 | 20.94499 | 127.37091 | 38020 ft | 471 kts | 220° |
| 2026-05-04 15:14 | 20.89381 | 127.32711 | 38014 ft | 471 kts | 220° |
| 2026-05-04 15:15 | 20.84264 | 127.28347 | 38025 ft | 472 kts | 220° |
| 2026-05-04 15:15 | 20.80018 | 127.24748 | 38015 ft | 472 kts | 220° |
| 2026-05-04 15:16 | 20.72287 | 127.18218 | 38020 ft | 472 kts | 220° |
| 2026-05-04 15:17 | 20.64552 | 127.11694 | 38024 ft | 472 kts | 220° |
| 2026-05-04 15:17 | 20.56815 | 127.05175 | 38017 ft | 472 kts | 220° |
| 2026-05-04 15:18 | 20.51648 | 127.00826 | 38019 ft | 473 kts | 220° |
| 2026-05-04 15:19 | 20.43919 | 126.94328 | 38021 ft | 473 kts | 220° |
| 2026-05-04 15:19 | 20.36163 | 126.87816 | 38010 ft | 474 kts | 220° |
| 2026-05-04 15:20 | 20.30983 | 126.83471 | 38016 ft | 474 kts | 220° |
| 2026-05-04 15:20 | 20.26025 | 126.79317 | 38009 ft | 474 kts | 220° |
| 2026-05-04 15:21 | 20.21905 | 126.75867 | 38008 ft | 474 kts | 220° |
| 2026-05-04 15:22 | 20.14160 | 126.69389 | 38015 ft | 474 kts | 220° |
| 2026-05-04 15:22 | 20.06372 | 126.62882 | 38014 ft | 474 kts | 220° |
| 2026-05-04 15:23 | 20.01180 | 126.58549 | 38007 ft | 474 kts | 220° |
| 2026-05-04 15:23 | 19.95984 | 126.54217 | 38015 ft | 475 kts | 220° |
| 2026-05-04 15:24 | 19.85583 | 126.45555 | 38018 ft | 475 kts | 220° |
| 2026-05-04 15:25 | 19.80382 | 126.41230 | 38011 ft | 475 kts | 220° |
| 2026-05-04 15:26 | 19.72614 | 126.34776 | 38009 ft | 475 kts | 220° |
| 2026-05-04 15:26 | 19.64801 | 126.28294 | 38009 ft | 475 kts | 220° |
| 2026-05-04 15:27 | 19.56998 | 126.21828 | 38009 ft | 475 kts | 220° |
| 2026-05-04 15:28 | 19.49185 | 126.15362 | 38006 ft | 475 kts | 220° |
| 2026-05-04 15:29 | 19.41368 | 126.08901 | 38007 ft | 475 kts | 220° |
| 2026-05-04 15:30 | 19.23161 | 125.93882 | 38004 ft | 475 kts | 220° |
| 2026-05-04 15:31 | 19.15337 | 125.87442 | 37997 ft | 475 kts | 220° |
| 2026-05-04 15:32 | 19.02301 | 125.76729 | 38003 ft | 475 kts | 220° |
| 2026-05-04 15:34 | 18.89268 | 125.66041 | 37998 ft | 474 kts | 220° |
| 2026-05-04 15:34 | 18.81470 | 125.59656 | 37998 ft | 474 kts | 220° |
| 2026-05-04 15:35 | 18.73643 | 125.53255 | 37999 ft | 474 kts | 220° |
| 2026-05-04 15:36 | 18.65823 | 125.46867 | 37995 ft | 474 kts | 220° |
| 2026-05-04 15:36 | 18.60606 | 125.42610 | 37995 ft | 474 kts | 220° |
| 2026-05-04 15:37 | 18.55393 | 125.38360 | 37995 ft | 473 kts | 220° |
| 2026-05-04 15:37 | 18.50187 | 125.34118 | 37995 ft | 473 kts | 220° |
| 2026-05-04 15:38 | 18.44973 | 125.29874 | 37997 ft | 473 kts | 220° |
| 2026-05-04 15:38 | 18.39769 | 125.25640 | 37996 ft | 473 kts | 220° |
| 2026-05-04 15:39 | 18.34560 | 125.21407 | 37994 ft | 472 kts | 220° |
| 2026-05-04 15:40 | 18.26751 | 125.15066 | 37996 ft | 472 kts | 220° |
| 2026-05-04 15:40 | 18.21558 | 125.10853 | 37992 ft | 472 kts | 220° |
| 2026-05-04 15:41 | 18.16392 | 125.06666 | 37992 ft | 471 kts | 220° |
| 2026-05-04 15:41 | 18.11197 | 125.02458 | 37988 ft | 471 kts | 220° |
| 2026-05-04 15:42 | 18.06003 | 124.98254 | 37989 ft | 471 kts | 220° |
| 2026-05-04 15:42 | 18.00805 | 124.94050 | 37989 ft | 471 kts | 220° |
| 2026-05-04 15:43 | 17.95621 | 124.89861 | 37990 ft | 471 kts | 220° |
| 2026-05-04 15:43 | 17.90420 | 124.85662 | 37991 ft | 471 kts | 220° |
| 2026-05-04 15:44 | 17.85234 | 124.81478 | 37987 ft | 470 kts | 220° |
| 2026-05-04 15:44 | 17.80045 | 124.77293 | 37987 ft | 470 kts | 220° |
| 2026-05-04 15:45 | 17.74857 | 124.73113 | 37985 ft | 470 kts | 220° |
| 2026-05-04 15:45 | 17.69664 | 124.68932 | 37984 ft | 470 kts | 220° |
| 2026-05-04 15:46 | 17.64468 | 124.64753 | 37988 ft | 470 kts | 220° |
| 2026-05-04 15:46 | 17.59305 | 124.60603 | 37985 ft | 470 kts | 220° |
| 2026-05-04 15:47 | 17.54112 | 124.56431 | 37983 ft | 470 kts | 220° |
| 2026-05-04 15:47 | 17.48910 | 124.52256 | 37983 ft | 471 kts | 220° |
| 2026-05-04 15:48 | 17.43712 | 124.48087 | 37981 ft | 471 kts | 220° |
| 2026-05-04 15:48 | 17.35910 | 124.41836 | 37984 ft | 471 kts | 220° |
| 2026-05-04 15:49 | 17.30697 | 124.37665 | 37980 ft | 471 kts | 220° |
| 2026-05-04 15:49 | 17.25492 | 124.33500 | 37978 ft | 471 kts | 220° |
| 2026-05-04 15:50 | 17.20279 | 124.29332 | 37980 ft | 471 kts | 220° |
| 2026-05-04 15:50 | 17.15069 | 124.25170 | 37981 ft | 471 kts | 220° |
| 2026-05-04 15:51 | 17.09887 | 124.21034 | 37977 ft | 471 kts | 220° |
| 2026-05-04 15:51 | 17.04665 | 124.16869 | 37976 ft | 472 kts | 220° |
| 2026-05-04 15:52 | 16.99447 | 124.12711 | 37976 ft | 472 kts | 220° |
| 2026-05-04 15:52 | 16.94230 | 124.08556 | 37988 ft | 472 kts | 220° |
| 2026-05-04 15:53 | 16.89006 | 124.04398 | 37976 ft | 472 kts | 220° |
| 2026-05-04 15:53 | 16.83777 | 124.00240 | 37987 ft | 472 kts | 220° |
| 2026-05-04 15:54 | 16.78581 | 123.96110 | 37972 ft | 473 kts | 220° |
| 2026-05-04 15:54 | 16.73342 | 123.91950 | 37985 ft | 473 kts | 220° |
| 2026-05-04 15:55 | 16.68105 | 123.87794 | 37985 ft | 473 kts | 220° |
| 2026-05-04 15:55 | 16.63750 | 123.84340 | 37979 ft | 473 kts | 219° |
| 2026-05-04 15:56 | 16.58504 | 123.80182 | 37979 ft | 473 kts | 219° |
| 2026-05-04 15:56 | 16.53254 | 123.76024 | 37971 ft | 474 kts | 219° |
| 2026-05-04 15:57 | 16.48007 | 123.71871 | 37975 ft | 474 kts | 219° |
| 2026-05-04 15:57 | 16.42753 | 123.67716 | 37972 ft | 474 kts | 219° |
| 2026-05-04 15:58 | 16.37491 | 123.63557 | 37971 ft | 474 kts | 219° |
| 2026-05-04 15:58 | 16.32239 | 123.59409 | 37969 ft | 475 kts | 219° |
| 2026-05-04 15:59 | 16.27006 | 123.55279 | 37965 ft | 475 kts | 219° |
| 2026-05-04 15:59 | 16.21742 | 123.51126 | 37966 ft | 475 kts | 219° |
| 2026-05-04 16:00 | 16.16465 | 123.46967 | 37968 ft | 475 kts | 219° |
| 2026-05-04 16:00 | 16.11185 | 123.42809 | 37970 ft | 476 kts | 219° |
| 2026-05-04 16:01 | 16.05904 | 123.38652 | 37967 ft | 476 kts | 219° |
| 2026-05-04 16:01 | 16.00623 | 123.34499 | 37967 ft | 476 kts | 219° |
| 2026-05-04 16:02 | 15.95339 | 123.30345 | 37966 ft | 476 kts | 219° |
| 2026-05-04 16:03 | 15.87408 | 123.24116 | 37965 ft | 476 kts | 219° |
| 2026-05-04 16:03 | 15.82120 | 123.19967 | 37964 ft | 476 kts | 219° |
| 2026-05-04 16:04 | 15.76859 | 123.15842 | 37962 ft | 477 kts | 219° |
| 2026-05-04 16:04 | 15.68914 | 123.09617 | 37961 ft | 477 kts | 219° |
| 2026-05-04 16:05 | 15.63960 | 123.05073 | 37962 ft | 474 kts | 231° |
| 2026-05-04 16:06 | 15.58627 | 122.96491 | 37963 ft | 473 kts | 241° |
| 2026-05-04 16:07 | 15.52183 | 122.84596 | 37960 ft | 473 kts | 241° |
| 2026-05-04 16:08 | 15.45675 | 122.72731 | 37961 ft | 474 kts | 241° |
| 2026-05-04 16:09 | 15.37522 | 122.57930 | 37957 ft | 474 kts | 241° |
| 2026-05-04 16:10 | 15.30973 | 122.46064 | 37960 ft | 474 kts | 241° |
| 2026-05-04 16:11 | 15.24414 | 122.34195 | 37958 ft | 475 kts | 241° |
| 2026-05-04 16:12 | 15.14583 | 122.16441 | 37956 ft | 474 kts | 241° |
| 2026-05-04 16:13 | 15.08017 | 122.04606 | 37285 ft | 473 kts | 241° |
| 2026-05-04 16:14 | 15.04709 | 121.98649 | 35517 ft | 484 kts | 241° |
| 2026-05-04 16:14 | 15.01454 | 121.92460 | 33694 ft | 495 kts | 250° |
| 2026-05-04 16:15 | 15.00216 | 121.81809 | 30955 ft | 505 kts | 267° |
| 2026-05-04 16:16 | 14.99862 | 121.74509 | 29313 ft | 507 kts | 266° |
| 2026-05-04 16:16 | 14.99277 | 121.63733 | 27522 ft | 494 kts | 266° |
| 2026-05-04 16:17 | 14.98883 | 121.56698 | 26380 ft | 486 kts | 266° |
| 2026-05-04 16:18 | 14.98296 | 121.46343 | 24717 ft | 476 kts | 266° |
| 2026-05-04 16:18 | 14.98101 | 121.42932 | 24156 ft | 473 kts | 265° |
| 2026-05-04 16:19 | 14.97524 | 121.32879 | 22386 ft | 463 kts | 265° |
| 2026-05-04 16:19 | 14.97144 | 121.26290 | 21208 ft | 455 kts | 266° |
| 2026-05-04 16:20 | 14.94884 | 121.17020 | 19476 ft | 442 kts | 237° |
| 2026-05-04 16:20 | 14.90789 | 121.12437 | 18349 ft | 434 kts | 222° |
| 2026-05-04 16:21 | 14.85418 | 121.07268 | 16805 ft | 427 kts | 222° |
| 2026-05-04 16:22 | 14.81172 | 121.03169 | 15628 ft | 421 kts | 222° |
| 2026-05-04 16:22 | 14.76745 | 120.98893 | 14412 ft | 415 kts | 221° |
| 2026-05-04 16:23 | 14.70886 | 120.93237 | 12733 ft | 406 kts | 221° |
| 2026-05-04 16:24 | 14.62772 | 120.85412 | 10464 ft | 392 kts | 221° |
| 2026-05-04 16:25 | 14.58895 | 120.81673 | 10022 ft | 366 kts | 221° |
| 2026-05-04 16:26 | 14.52129 | 120.75138 | 9601 ft | 312 kts | 223° |
| 2026-05-04 16:26 | 14.48791 | 120.69770 | 8751 ft | 298 kts | 239° |
| 2026-05-04 16:27 | 14.46811 | 120.66173 | 8458 ft | 279 kts | 239° |
| 2026-05-04 16:28 | 14.43983 | 120.61095 | 7664 ft | 268 kts | 239° |
| 2026-05-04 16:28 | 14.41231 | 120.56149 | 6782 ft | 263 kts | 239° |
| 2026-05-04 16:29 | 14.36132 | 120.51827 | 5469 ft | 246 kts | 166° |
| 2026-05-04 16:30 | 14.31816 | 120.54317 | 5003 ft | 237 kts | 133° |
| 2026-05-04 16:31 | 14.29547 | 120.56786 | 5004 ft | 237 kts | 131° |
| 2026-05-04 16:31 | 14.28431 | 120.61132 | 5006 ft | 205 kts | 64° |
| 2026-05-04 16:32 | 14.30470 | 120.64826 | 5013 ft | 198 kts | 60° |
| 2026-05-04 16:33 | 14.31872 | 120.67289 | 4792 ft | 203 kts | 60° |
| 2026-05-04 16:33 | 14.33284 | 120.69777 | 4301 ft | 192 kts | 62° |
| 2026-05-04 16:34 | 14.34477 | 120.72085 | 3941 ft | 175 kts | 68° |
| 2026-05-04 16:34 | 14.34716 | 120.73307 | 3621 ft | 173 kts | 76° |
| 2026-05-04 16:35 | 14.36659 | 120.76330 | 3011 ft | 168 kts | 61° |
| 2026-05-04 16:35 | 14.38402 | 120.79465 | 3007 ft | 167 kts | 62° |
| 2026-05-04 16:36 | 14.38986 | 120.80504 | 3010 ft | 168 kts | 62° |
| 2026-05-04 16:36 | 14.40142 | 120.82591 | 3030 ft | 167 kts | 62° |
| 2026-05-04 16:37 | 14.41300 | 120.84684 | 3037 ft | 167 kts | 62° |
| 2026-05-04 16:37 | 14.41845 | 120.85668 | 3028 ft | 150 kts | 62° |
| 2026-05-04 16:37 | 14.42847 | 120.87478 | 2717 ft | 143 kts | 62° |
| 2026-05-04 16:38 | 14.43830 | 120.89256 | 2343 ft | 143 kts | 61° |
| 2026-05-04 16:39 | 14.45328 | 120.91925 | 1810 ft | 143 kts | 61° |
| 2026-05-04 16:39 | 14.46314 | 120.93707 | 1417 ft | 143 kts | 62° |
| 2026-05-04 16:40 | 14.47273 | 120.95499 | 1084 ft | 144 kts | 60° |
| 2026-05-04 16:40 | 14.48281 | 120.97299 | 771 ft | 144 kts | 63° |
| 2026-05-04 16:41 | 14.49278 | 120.99089 | 350 ft | 144 kts | 64° |
| 2026-05-04 16:41 | 14.50618 | 121.01509 | 67 ft | 63 kts | 59° |
| 2026-05-04 16:42 | 14.50875 | 121.01967 | 67 ft | 10 kts | 58° |
| 2026-05-04 16:43 | 14.50968 | 121.01984 | 67 ft | 8 kts | 324° |
| 2026-05-04 16:43 | 14.50987 | 121.01891 | 65 ft | 8 kts | 240° |
| 2026-05-04 16:43 | 14.50966 | 121.01853 | 66 ft | 10 kts | 240° |
| 2026-05-04 16:44 | 14.50763 | 121.01488 | 65 ft | 16 kts | 240° |
| 2026-05-04 16:45 | 14.50641 | 121.01272 | 65 ft | 19 kts | 239° |
| 2026-05-04 16:46 | 14.50437 | 121.00904 | 64 ft | 11 kts | 240° |
| 2026-05-04 16:46 | 14.50514 | 121.00820 | 64 ft | 11 kts | 338° |
| 2026-05-04 16:47 | 14.50587 | 121.00744 | 68 ft | 6 kts | 261° |
| 2026-05-04 16:47 | 14.50572 | 121.00708 | 66 ft | 0 kts | 244° |